Time;durP1;ratioP1;P1;durP2;ratioP2;P2;SDS_P1;SDS_P2;PMS_P1;PMS_P2;Temp;Humidity;BMP_temperature;BMP_pressure;BME280_temperature;BME280_humidity;BME280_pressure;Samples;Min_cycle;Max_cycle;Signal;HPM_P1;HPM_P2
2023/04/13 00:02:09;;;;;;;8.20;4.13;;;9.50;99.90;;;8.03;84.51;99502.72;5045509;28;20127;-80
2023/04/13 00:04:41;;;;;;;10.68;4.68;;;9.50;99.90;;;7.97;85.26;99516.19;4997241;28;20032;-80
2023/04/13 00:07:13;;;;;;;13.65;5.38;;;9.40;99.90;;;7.89;86.62;99513.97;4992458;28;20041;-80
2023/04/13 00:09:44;;;;;;;14.32;4.70;;;9.40;99.90;;;7.76;87.89;99515.56;5012444;28;20643;-79
2023/04/13 00:12:11;;;;;;;18.70;5.40;;;9.30;99.90;;;7.77;89.50;99517.25;5003503;28;20833;-77
2023/04/13 00:14:38;;;;;;;17.45;5.38;;;9.20;99.90;;;7.76;90.15;99520.81;4999423;28;20578;-78
2023/04/13 00:17:03;;;;;;;12.23;5.18;;;9.20;99.90;;;7.69;91.09;99527.28;5006006;28;20052;-77
2023/04/13 00:19:34;;;;;;;13.20;5.53;;;9.20;99.90;;;7.65;91.97;99529.25;5024557;28;20501;-77
2023/04/13 00:22:00;;;;;;;9.85;5.15;;;9.10;99.90;;;7.63;93.02;99518.00;5000551;28;20082;-77
2023/04/13 00:24:26;;;;;;;13.27;5.40;;;9.10;99.90;;;7.65;92.90;99526.63;5038939;28;21462;-78
2023/04/13 00:26:53;;;;;;;11.68;5.78;;;9.10;99.90;;;7.70;92.77;99535.06;5023041;28;20048;-76
2023/04/13 00:29:19;;;;;;;15.52;6.07;;;9.10;99.90;;;7.76;93.21;99539.16;5017925;28;20032;-77
2023/04/13 00:31:45;;;;;;;14.32;6.07;;;9.10;99.90;;;7.84;92.19;99539.59;4993089;28;20394;-77
2023/04/13 00:34:11;;;;;;;12.18;5.97;;;9.10;99.90;;;7.88;92.38;99532.38;4988068;28;20052;-77
2023/04/13 00:36:39;;;;;;;12.88;6.40;;;9.10;99.90;;;7.89;91.62;99532.31;5009096;28;20074;-77
2023/04/13 00:39:06;;;;;;;14.32;7.18;;;9.10;99.90;;;7.92;91.60;99528.69;5021571;28;20044;-77
2023/04/13 00:41:31;;;;;;;16.67;6.45;;;9.10;99.90;;;7.91;91.92;99533.09;4990021;28;20627;-76
2023/04/13 00:43:57;;;;;;;14.50;6.63;;;9.20;99.90;;;7.92;92.01;99542.63;5028420;28;20037;-78
2023/04/13 00:46:23;;;;;;;15.48;7.00;;;9.20;99.90;;;7.89;92.37;99558.53;5005436;28;20037;-78
2023/04/13 00:48:49;;;;;;;13.48;7.10;;;9.10;99.90;;;7.79;93.05;99544.22;5009478;28;20124;-78
2023/04/13 00:51:21;;;;;;;14.93;6.97;;;;;;;7.68;94.53;99530.84;5004930;28;20029;-78
2023/04/13 00:53:48;;;;;;;11.98;7.07;;;9.10;99.90;;;7.60;95.41;99531.25;5034603;28;20037;-78
2023/04/13 00:56:14;;;;;;;11.80;6.47;;;9.10;99.90;;;7.60;95.76;99526.88;5014866;28;21578;-78
2023/04/13 00:58:41;;;;;;;15.27;6.90;;;9.00;99.90;;;7.55;96.53;99526.25;5006428;28;20045;-78
2023/04/13 01:01:11;;;;;;;14.55;6.40;;;9.00;99.90;;;7.48;97.19;99535.38;5021939;28;20520;-78
2023/04/13 01:03:38;;;;;;;15.02;6.85;;;9.00;99.90;;;7.45;98.11;99524.22;5020954;28;20041;-78
2023/04/13 01:06:20;;;;;;;15.43;6.65;;;8.90;99.90;;;7.44;98.52;99518.13;5030287;28;20032;-78
2023/04/13 01:09:07;;;;;;;12.43;6.65;;;8.90;99.90;;;7.40;99.48;99521.84;5014913;28;20041;-79
2023/04/13 01:11:52;;;;;;;12.55;7.68;;;8.90;99.90;;;7.37;100.00;99516.78;4988729;28;20557;-78
2023/04/13 01:14:54;;;;;;;15.00;8.07;;;8.80;99.90;;;7.31;100.00;99504.00;4999745;28;20056;-78
2023/04/13 01:17:27;;;;;;;13.77;8.20;;;8.80;99.90;;;7.29;100.00;99503.22;5005975;28;20082;-79
2023/04/13 01:20:00;;;;;;;16.20;8.68;;;8.80;99.90;;;7.33;100.00;99497.75;4986900;28;20556;-79
2023/04/13 01:22:32;;;;;;;15.98;8.32;;;8.70;99.90;;;7.27;100.00;99489.38;4997046;28;20137;-79
2023/04/13 01:25:07;;;;;;;13.80;7.90;;;8.70;99.90;;;7.22;100.00;99491.41;4993400;28;20033;-79
2023/04/13 01:27:50;;;;;;;12.33;7.73;;;8.60;99.90;;;7.21;100.00;99495.78;5004844;28;20045;-79
2023/04/13 01:30:22;;;;;;;18.40;8.65;;;8.60;99.90;;;7.17;100.00;99505.56;5005954;28;20499;-79
2023/04/13 01:32:58;;;;;;;16.60;7.80;;;8.60;99.90;;;7.13;100.00;99505.81;5001698;28;20029;-78
2023/04/13 01:35:24;;;;;;;14.98;8.63;;;8.50;99.90;;;7.15;100.00;99523.13;5000703;28;20036;-80
2023/04/13 01:37:51;;;;;;;19.38;8.48;;;8.50;99.90;;;7.09;100.00;99510.34;5018698;28;20600;-78
2023/04/13 01:40:24;;;;;;;21.13;8.70;;;8.50;99.90;;;7.12;100.00;99510.19;5015046;28;20048;-78
2023/04/13 01:42:51;;;;;;;12.95;8.38;;;8.50;99.90;;;7.08;100.00;99526.13;5027620;28;20440;-80
2023/04/13 01:45:23;;;;;;;17.48;9.13;;;8.50;99.90;;;7.12;100.00;99541.59;4996816;28;20524;-79
2023/04/13 01:48:23;;;;;;;16.65;10.05;;;8.50;99.90;;;7.15;100.00;99551.94;5017785;28;21434;-79
2023/04/13 01:50:53;;;;;;;21.27;9.57;;;8.60;99.90;;;7.13;100.00;99559.00;5000976;28;20120;-79
2023/04/13 01:53:27;;;;;;;19.80;10.38;;;8.60;99.90;;;7.18;100.00;99559.63;5003914;28;20026;-79
2023/04/13 01:55:55;;;;;;;20.48;9.88;;;8.60;99.90;;;7.23;100.00;99562.00;5000992;28;20104;-78
2023/04/13 01:58:26;;;;;;;18.48;10.43;;;8.60;99.90;;;7.25;100.00;99564.53;5009983;28;20044;-79
2023/04/13 02:00:55;;;;;;;17.35;10.25;;;8.60;99.90;;;7.26;100.00;99558.41;5003631;28;20063;-79
2023/04/13 02:03:21;;;;;;;23.33;10.90;;;8.70;99.90;;;7.28;100.00;99554.75;5006602;28;20094;-79
2023/04/13 02:05:49;;;;;;;18.15;10.75;;;8.70;99.90;;;7.31;100.00;99567.69;4978840;28;20054;-79
2023/04/13 02:08:17;;;;;;;24.25;10.32;;;8.70;99.90;;;7.32;100.00;99573.75;5019073;28;20045;-81
2023/04/13 02:10:48;;;;;;;18.85;10.80;;;8.70;99.90;;;7.31;100.00;99565.06;4968347;28;20033;-79
2023/04/13 02:13:14;;;;;;;18.92;11.02;;;8.70;99.90;;;7.32;100.00;99553.69;4985630;28;20534;-79
2023/04/13 02:15:40;;;;;;;19.60;11.45;;;8.70;99.90;;;7.33;100.00;99562.38;5012074;28;20055;-80
2023/04/13 02:18:06;;;;;;;20.45;10.73;;;8.70;99.90;;;7.36;100.00;99570.06;4978189;28;20037;-79
2023/04/13 02:20:43;;;;;;;24.50;12.20;;;8.70;99.90;;;7.37;100.00;99569.16;4990171;28;20029;-80
2023/04/13 02:23:18;;;;;;;21.08;11.13;;;8.80;99.90;;;7.35;100.00;99571.00;4983193;28;20048;-80
2023/04/13 02:25:45;;;;;;;18.58;10.52;;;8.80;99.90;;;7.37;100.00;99570.00;4988713;28;20118;-80
2023/04/13 02:28:11;;;;;;;26.73;11.75;;;8.80;99.90;;;7.38;100.00;99576.06;4996413;28;20063;-79
2023/04/13 02:30:37;;;;;;;19.98;11.13;;;8.80;99.90;;;7.43;100.00;99571.47;4981563;28;20091;-79
2023/04/13 02:33:04;;;;;;;21.63;12.05;;;8.80;99.90;;;7.52;100.00;99585.84;5016404;28;20039;-80
2023/04/13 02:35:39;;;;;;;20.33;11.98;;;8.80;99.90;;;7.51;100.00;99595.44;4990791;28;20699;-79
2023/04/13 02:38:06;;;;;;;20.15;12.27;;;8.90;99.90;;;7.56;100.00;99609.19;5008206;28;20045;-80
2023/04/13 02:40:32;;;;;;;19.77;12.48;;;8.90;99.90;;;7.58;100.00;99609.94;4993550;28;20065;-79
2023/04/13 02:42:58;;;;;;;22.23;12.45;;;8.90;99.90;;;7.59;100.00;99605.53;4968009;28;20036;-80
2023/04/13 02:45:27;;;;;;;21.83;12.48;;;8.90;99.90;;;7.64;100.00;99615.78;4981967;28;20509;-81
2023/04/13 02:47:53;;;;;;;21.23;11.93;;;9.00;99.90;;;7.68;100.00;99614.69;5003630;28;20476;-80
2023/04/13 02:50:19;;;;;;;24.20;13.15;;;9.00;99.90;;;7.69;100.00;99613.75;5022558;28;20574;-80
2023/04/13 02:52:45;;;;;;;22.48;12.38;;;9.00;99.90;;;7.73;100.00;99612.66;4978250;28;20132;-80
2023/04/13 02:55:11;;;;;;;22.38;13.20;;;9.00;99.90;;;7.73;100.00;99610.06;4956315;28;20127;-80
2023/04/13 02:57:37;;;;;;;22.77;13.25;;;9.00;99.90;;;7.74;100.00;99615.22;5002203;28;20133;-81
2023/04/13 03:00:10;;;;;;;22.00;13.45;;;9.10;99.90;;;7.82;100.00;99620.06;4967543;28;20422;-79
2023/04/13 03:02:40;;;;;;;19.50;13.10;;;9.10;99.90;;;7.85;100.00;99625.13;4985927;28;20192;-80
2023/04/13 03:05:07;;;;;;;27.35;13.77;;;9.10;99.90;;;7.87;100.00;99604.94;5020695;28;20033;-80
2023/04/13 03:07:37;;;;;;;26.13;13.38;;;;;;;7.90;100.00;99602.13;4980818;28;20040;-80
2023/04/13 03:10:04;;;;;;;21.70;12.68;;;9.20;99.90;;;7.91;100.00;99616.13;4974493;28;20061;-80
2023/04/13 03:12:31;;;;;;;24.15;13.02;;;9.20;99.90;;;7.97;100.00;99621.03;5008499;28;20045;-79
2023/04/13 03:15:06;;;;;;;24.35;13.23;;;9.20;99.90;;;8.01;100.00;99628.66;4999960;28;20417;-81
2023/04/13 03:17:32;;;;;;;22.48;13.85;;;9.30;99.90;;;8.04;100.00;99622.38;4991439;28;20548;-80
2023/04/13 03:19:58;;;;;;;21.85;13.55;;;9.20;99.90;;;8.09;100.00;99625.59;4991056;28;20037;-80
2023/04/13 03:22:24;;;;;;;22.95;14.50;;;9.30;99.90;;;8.14;100.00;99625.34;4963466;28;20460;-80
2023/04/13 03:24:51;;;;;;;30.90;15.80;;;9.40;99.90;;;8.16;100.00;99616.50;5001977;28;20555;-80
2023/04/13 03:27:19;;;;;;;18.23;13.55;;;9.40;99.90;;;8.17;100.00;99618.16;5014828;28;20083;-80
2023/04/13 03:29:46;;;;;;;20.20;13.93;;;9.40;99.90;;;8.16;100.00;99623.50;5002574;28;20051;-80
2023/04/13 03:32:11;;;;;;;21.52;14.13;;;9.40;99.90;;;8.19;100.00;99626.81;4979320;28;20046;-79
2023/04/13 03:34:42;;;;;;;22.90;14.05;;;10.00;99.90;;;8.22;100.00;99633.66;4987403;28;20112;-79
2023/04/13 03:37:14;;;;;;;29.67;15.70;;;9.40;99.90;;;8.20;100.00;99633.72;4990468;28;20048;-80
2023/04/13 03:39:40;;;;;;;21.60;13.90;;;9.50;99.90;;;8.19;100.00;99644.31;5004210;28;20041;-79
2023/04/13 03:42:06;;;;;;;23.92;15.38;;;9.40;99.90;;;8.16;100.00;99649.72;5034918;28;20540;-79
2023/04/13 03:44:32;;;;;;;25.02;15.73;;;9.40;99.90;;;8.14;100.00;99634.09;4980085;28;20037;-79
2023/04/13 03:47:08;;;;;;;22.67;15.15;;;9.40;99.90;;;8.17;100.00;99633.06;4991141;28;20045;-79
2023/04/13 03:49:34;;;;;;;20.45;14.75;;;9.40;99.90;;;8.18;100.00;99640.81;4998424;28;20038;-79
2023/04/13 03:52:00;;;;;;;28.17;16.33;;;9.40;99.90;;;8.23;100.00;99640.59;5009867;28;20620;-79
2023/04/13 03:54:28;;;;;;;22.98;16.42;;;9.50;99.90;;;8.25;100.00;99638.75;4974661;28;20046;-79
2023/04/13 03:56:56;;;;;;;22.20;15.57;;;9.40;99.90;;;8.21;100.00;99645.09;4988901;28;20026;-80
2023/04/13 03:59:22;;;;;;;23.77;16.10;;;9.50;99.90;;;8.19;100.00;99641.69;5008385;28;20056;-78
2023/04/13 04:01:49;;;;;;;28.63;15.82;;;9.50;99.90;;;8.19;100.00;99644.31;4990379;28;20535;-79
2023/04/13 04:04:14;;;;;;;24.83;15.90;;;9.50;99.90;;;8.20;100.00;99651.25;4990944;28;20040;-80
2023/04/13 04:06:40;;;;;;;23.60;16.33;;;9.50;99.90;;;8.25;100.00;99657.09;4988042;28;20150;-78
2023/04/13 04:09:06;;;;;;;21.20;16.38;;;9.50;99.90;;;8.26;100.00;99657.94;5005756;28;20029;-80
2023/04/13 04:11:34;;;;;;;21.50;15.75;;;9.50;99.90;;;8.27;100.00;99659.63;4975351;28;20097;-79
2023/04/13 04:14:00;;;;;;;22.25;16.10;;;9.50;99.90;;;8.28;100.00;99677.91;5010963;28;20033;-79
2023/04/13 04:16:26;;;;;;;21.17;16.48;;;9.50;99.90;;;8.28;100.00;99682.31;5013763;28;20082;-79
2023/04/13 04:18:52;;;;;;;22.10;15.07;;;9.50;99.90;;;8.24;100.00;99683.41;5032614;28;20021;-79
2023/04/13 04:21:20;;;;;;;18.50;13.95;;;9.50;99.90;;;8.21;100.00;99689.66;5008566;28;20029;-78
2023/04/13 04:23:50;;;;;;;17.67;14.10;;;9.50;99.90;;;8.18;100.00;99692.44;5008883;28;20059;-79
2023/04/13 04:26:16;;;;;;;19.40;13.20;;;9.40;99.90;;;8.15;100.00;99697.84;4977128;28;20034;-80
2023/04/13 04:28:42;;;;;;;18.42;13.55;;;9.50;99.90;;;8.08;100.00;99697.34;4989102;28;20033;-79
2023/04/13 04:31:12;;;;;;;17.80;12.90;;;9.40;99.90;;;8.08;100.00;99701.69;5026781;28;20068;-79
2023/04/13 04:33:43;;;;;;;17.20;13.52;;;9.40;99.90;;;7.99;100.00;99703.91;5012314;28;20036;-80
2023/04/13 04:36:12;;;;;;;16.42;13.25;;;9.30;99.90;;;7.86;100.00;99718.59;5006923;28;20445;-79
2023/04/13 04:38:40;;;;;;;18.92;13.88;;;9.20;99.90;;;7.79;100.00;99717.19;5024351;28;20024;-79
2023/04/13 04:41:07;;;;;;;19.92;13.52;;;9.10;99.90;;;7.73;100.00;99720.09;4998611;28;20041;-79
2023/04/13 04:43:36;;;;;;;18.98;14.25;;;9.00;99.90;;;7.67;100.00;99717.81;5006469;28;20577;-80
2023/04/13 04:46:03;;;;;;;18.20;14.68;;;9.00;99.90;;;7.62;100.00;99722.44;4975425;28;20041;-79
2023/04/13 04:48:30;;;;;;;24.08;16.05;;;8.90;99.90;;;7.57;100.00;99731.38;5008465;28;20574;-79
2023/04/13 04:50:57;;;;;;;27.50;17.98;;;8.90;99.90;;;7.49;100.00;99730.06;5008937;28;20041;-79
2023/04/13 04:53:30;;;;;;;29.85;19.85;;;8.80;99.90;;;7.47;100.00;99727.50;5000687;28;20029;-78
2023/04/13 04:55:56;;;;;;;28.92;19.42;;;8.80;99.90;;;7.46;100.00;99733.69;5023187;28;20501;-79
2023/04/13 04:58:22;;;;;;;28.35;18.67;;;8.70;99.90;;;7.45;100.00;99733.75;4987730;28;20116;-78
2023/04/13 05:00:48;;;;;;;28.10;19.38;;;8.70;99.90;;;7.48;100.00;99738.84;5019417;28;20083;-79
2023/04/13 05:03:23;;;;;;;26.75;17.92;;;8.70;99.90;;;7.50;100.00;99735.22;4991244;28;20596;-78
2023/04/13 05:05:50;;;;;;;23.13;17.52;;;8.70;99.90;;;7.50;100.00;99743.09;4992384;28;20128;-80
2023/04/13 05:08:16;;;;;;;25.08;17.58;;;8.80;99.90;;;7.54;100.00;99749.88;5017471;28;20034;-79
2023/04/13 05:10:47;;;;;;;26.42;17.80;;;8.80;99.90;;;7.64;100.00;99745.00;5029863;28;20482;-80
2023/04/13 05:13:13;;;;;;;29.33;17.55;;;8.80;99.90;;;7.76;99.68;99751.41;5018171;28;20090;-79
2023/04/13 05:15:39;;;;;;;22.90;16.92;;;8.90;99.90;;;7.91;99.05;99750.63;5031058;28;20029;-80
2023/04/13 05:18:05;;;;;;;25.15;17.50;;;9.00;99.90;;;8.02;98.08;99750.91;4993371;28;20072;-80
2023/04/13 05:20:33;;;;;;;23.73;16.90;;;9.00;99.90;;;8.18;96.52;99747.50;5024150;28;20059;-80
2023/04/13 05:23:00;;;;;;;20.10;14.90;;;9.20;99.90;;;8.39;95.59;99751.63;5002564;28;20035;-80
2023/04/13 05:25:28;;;;;;;25.58;15.57;;;9.40;99.90;;;9.37;93.02;99762.94;5030572;28;20107;-80
2023/04/13 05:27:55;;;;;;;17.27;12.68;;;9.70;99.90;;;9.55;89.97;99767.16;4972408;28;20138;-80
2023/04/13 05:30:20;;;;;;;17.23;12.27;;;10.20;99.90;;;12.77;84.26;99787.03;5027915;28;20704;-80
2023/04/13 05:32:46;;;;;;;13.07;10.73;;;11.70;99.90;;;17.31;68.79;99791.53;5040096;28;20033;-80
2023/04/13 05:35:12;;;;;;;13.65;9.00;;;13.50;99.90;;;19.46;58.66;99799.88;5004973;28;20136;-80
2023/04/13 05:37:45;;;;;;;11.82;8.82;;;14.60;99.90;;;16.74;60.47;99772.59;5016105;28;20517;-80
2023/04/13 05:40:12;;;;;;;10.73;8.95;;;14.80;99.90;;;15.51;63.11;99775.00;5006581;28;20044;-79
2023/04/13 05:42:40;;;;;;;12.48;8.95;;;14.80;99.90;;;14.71;64.75;99777.94;4976608;28;20037;-80
2023/04/13 05:45:11;;;;;;;14.63;9.60;;;14.20;99.90;;;13.74;66.56;99772.94;5031332;28;20048;-80
2023/04/13 05:47:37;;;;;;;13.38;9.15;;;13.80;99.90;;;12.85;68.43;99773.25;5020719;28;20037;-80
2023/04/13 05:50:04;;;;;;;12.68;8.90;;;13.30;99.90;;;12.47;69.78;99788.22;5014134;28;20028;-79
2023/04/13 05:52:30;;;;;;;11.00;8.90;;;12.90;99.90;;;12.25;71.29;99790.66;5022649;28;20533;-80
2023/04/13 05:54:56;;;;;;;11.75;9.23;;;12.60;99.90;;;12.06;70.96;99798.97;5027076;28;20100;-80
2023/04/13 05:57:25;;;;;;;11.93;9.35;;;12.40;99.90;;;11.40;72.63;99787.47;5019838;28;20696;-79
2023/04/13 05:59:53;;;;;;;17.10;9.77;;;12.10;99.90;;;10.98;74.55;99791.94;4997778;28;20040;-80
2023/04/13 06:02:19;;;;;;;14.13;9.63;;;11.80;99.90;;;10.72;75.47;99791.78;5009258;28;20037;-79
2023/04/13 06:04:45;;;;;;;15.55;10.60;;;11.60;99.90;;;10.87;76.20;99790.81;5026800;28;20028;-80
2023/04/13 06:07:15;;;;;;;13.73;9.55;;;11.60;99.90;;;11.09;75.71;99802.63;5012779;28;20099;-80
2023/04/13 06:09:43;;;;;;;13.60;9.55;;;11.60;99.90;;;11.19;75.51;99801.09;5007741;28;20041;-80
2023/04/13 06:12:09;;;;;;;11.90;8.88;;;11.60;99.90;;;11.08;75.51;99803.59;5032887;28;20079;-80
2023/04/13 06:14:35;;;;;;;16.35;9.50;;;11.60;99.90;;;10.83;75.83;99804.28;5001977;28;20044;-80
2023/04/13 06:17:01;;;;;;;19.20;9.35;;;11.60;99.90;;;10.69;76.90;99818.31;5034069;28;20124;-80
2023/04/13 06:19:27;;;;;;;13.77;9.18;;;11.50;99.90;;;10.81;76.93;99821.94;5012602;28;20440;-80
2023/04/13 06:21:53;;;;;;;12.60;8.38;;;11.50;99.90;;;10.97;76.39;99822.69;5000632;28;20040;-80
2023/04/13 06:24:26;;;;;;;12.55;8.68;;;11.50;99.90;;;10.79;76.62;99821.19;5008175;28;20096;-79
2023/04/13 06:26:53;;;;;;;12.70;8.40;;;11.50;99.90;;;10.51;77.37;99822.03;4989260;28;20111;-79
2023/04/13 06:29:19;;;;;;;13.70;8.73;;;11.40;99.90;;;10.30;77.82;99827.66;4996212;28;20034;-79
2023/04/13 06:31:45;;;;;;;16.75;8.65;;;11.30;99.90;;;10.19;78.20;99833.50;4959716;28;20047;-79
2023/04/13 06:34:16;;;;;;;12.48;8.52;;;11.10;99.90;;;10.00;79.42;99838.16;5037484;28;20108;-80
2023/04/13 06:36:41;;;;;;;15.38;9.18;;;11.00;99.90;;;9.79;80.07;99835.84;5007998;28;20052;-79
2023/04/13 06:39:08;;;;;;;13.52;9.18;;;11.00;99.90;;;9.76;80.56;99836.03;5009132;28;20119;-79
2023/04/13 06:41:35;;;;;;;14.40;9.68;;;10.80;99.90;;;9.70;80.79;99838.16;4983204;28;20572;-80
2023/04/13 06:44:01;;;;;;;12.85;9.57;;;10.70;99.90;;;9.59;81.11;99847.53;5002398;28;20153;-79
2023/04/13 06:46:35;;;;;;;11.77;8.57;;;10.60;99.90;;;9.41;81.27;99845.91;4991635;28;20339;-80
2023/04/13 06:49:01;;;;;;;13.52;8.48;;;10.50;99.90;;;9.29;81.78;99847.44;4991069;28;20025;-79
2023/04/13 06:51:27;;;;;;;14.43;8.00;;;10.50;99.90;;;9.47;81.75;99866.59;5000068;28;20043;-80
2023/04/13 06:53:53;;;;;;;13.73;7.55;;;10.50;99.90;;;9.45;81.85;99866.66;4984257;28;20843;-78
2023/04/13 06:56:24;;;;;;;14.77;7.68;;;10.50;99.90;;;9.80;81.38;99866.47;5012958;28;20640;-80
2023/04/13 06:58:50;;;;;;;10.75;6.70;;;10.80;99.90;;;10.37;79.98;99875.53;5005690;28;20032;-79
2023/04/13 07:01:16;;;;;;;12.85;6.30;;;11.10;99.90;;;10.78;78.04;99880.09;4999902;28;20087;-80
2023/04/13 07:03:42;;;;;;;12.63;6.82;;;11.50;99.90;;;11.65;75.88;99892.22;5001570;28;20391;-79
2023/04/13 07:06:08;;;;;;;12.57;5.72;;;12.00;99.90;;;12.49;72.99;99910.41;5006397;28;20033;-80
2023/04/13 07:08:41;;;;;;;10.45;6.28;;;12.60;99.90;;;12.89;70.42;99899.78;4989966;28;20047;-80
2023/04/13 07:11:08;;;;;;;9.48;5.93;;;13.00;99.90;;;12.50;70.63;99900.69;5019909;28;20717;-80
2023/04/13 07:13:34;;;;;;;11.23;5.82;;;13.00;99.90;;;12.00;71.81;99908.41;5023136;28;20040;-80
2023/04/13 07:16:00;;;;;;;10.32;6.50;;;12.80;99.90;;;11.65;72.47;99918.56;5025285;28;20040;-79
2023/04/13 07:18:29;;;;;;;11.68;6.53;;;12.60;99.90;;;11.40;73.83;99919.28;4965660;28;20526;-79
2023/04/13 07:20:55;;;;;;;11.48;6.65;;;12.40;99.90;;;11.25;74.75;99911.41;4998278;28;20067;-80
2023/04/13 07:23:21;;;;;;;11.50;6.40;;;12.30;99.90;;;11.23;75.57;99913.28;5027950;28;20502;-79
2023/04/13 07:25:47;;;;;;;10.35;5.93;;;12.20;99.90;;;11.27;75.80;99909.53;4999735;28;20125;-80
2023/04/13 07:28:13;;;;;;;15.57;6.00;;;12.20;99.90;;;11.19;75.24;99917.06;5009661;28;20036;-80
2023/04/13 07:30:43;;;;;;;12.35;6.30;;;12.20;99.90;;;11.24;75.35;99919.41;4991456;28;20776;-79
2023/04/13 07:33:09;;;;;;;11.18;5.50;;;12.20;99.90;;;11.13;75.65;99920.06;4995615;28;20094;-80
2023/04/13 07:35:37;;;;;;;12.30;6.00;;;12.20;99.90;;;11.17;75.30;99926.84;5031921;28;20136;-80
2023/04/13 07:38:03;;;;;;;14.40;5.78;;;12.20;99.90;;;11.29;75.57;99919.94;5024077;28;20029;-79
2023/04/13 07:40:29;;;;;;;11.13;4.68;;;12.20;99.90;;;11.33;74.96;99924.09;5002011;28;20036;-79
2023/04/13 07:42:56;;;;;;;12.38;4.70;;;12.20;99.90;;;11.35;74.35;99926.63;4990693;28;20515;-80
2023/04/13 07:45:28;;;;;;;14.63;4.40;;;12.30;99.90;;;11.48;74.17;99924.91;5003844;28;20029;-79
2023/04/13 07:47:54;;;;;;;14.85;4.75;;;12.40;99.90;;;11.75;73.81;99929.38;5003277;28;20696;-80
2023/04/13 07:50:20;;;;;;;11.70;4.35;;;12.60;99.90;;;12.03;73.44;99936.38;5010414;28;20037;-79
2023/04/13 07:52:46;;;;;;;13.02;4.13;;;12.80;99.90;;;12.21;72.30;99935.19;4992879;28;20033;-80
2023/04/13 07:55:11;;;;;;;10.50;4.43;;;13.00;99.90;;;12.48;71.73;99939.56;4998750;28;20040;-79
2023/04/13 07:57:37;;;;;;;13.65;4.63;;;13.20;99.90;;;12.77;70.96;99945.53;4999882;28;20039;-80
2023/04/13 08:00:05;;;;;;;13.02;4.40;;;13.50;99.90;;;13.10;70.69;99957.38;5025859;28;20037;-79
2023/04/13 08:02:36;;;;;;;10.68;4.03;;;13.80;99.90;;;13.29;69.10;99949.03;4999841;28;20481;-79
2023/04/13 08:05:03;;;;;;;12.02;4.15;;;14.00;99.90;;;13.41;67.93;99953.47;5017490;28;20037;-79
2023/04/13 08:07:28;;;;;;;6.88;3.83;;;14.10;99.90;;;13.27;67.83;99946.47;5015125;28;20081;-80
2023/04/13 08:09:54;;;;;;;13.70;4.50;;;14.10;99.90;;;13.25;67.74;99937.78;5012013;28;20524;-79
2023/04/13 08:12:21;;;;;;;10.18;4.07;;;14.20;99.90;;;13.31;68.38;99944.50;5009290;28;20029;-78
2023/04/13 08:14:52;;;;;;;14.05;3.75;;;14.20;99.90;;;13.41;68.31;99947.31;4996528;28;20489;-79
2023/04/13 08:17:18;;;;;;;13.25;4.38;;;14.20;99.90;;;13.29;68.46;99952.53;5009307;28;20037;-80
2023/04/13 08:19:44;;;;;;;11.25;4.15;;;14.20;99.90;;;13.29;68.17;99949.88;4996881;28;20076;-79
2023/04/13 08:22:10;;;;;;;12.02;3.85;;;14.10;99.90;;;13.21;68.47;99948.69;5001139;28;20095;-79
2023/04/13 08:24:36;;;;;;;9.90;3.78;;;14.10;99.90;;;13.26;68.28;99942.16;5006224;28;20033;-80
2023/04/13 08:27:02;;;;;;;9.48;3.35;;;14.10;99.90;;;13.24;67.53;99948.47;5025473;28;20716;-79
2023/04/13 08:29:31;;;;;;;10.50;3.42;;;14.20;99.90;;;13.51;67.01;99951.84;4985090;28;20138;-79
2023/04/13 08:31:57;;;;;;;10.90;3.30;;;14.40;99.90;;;13.85;66.34;99960.00;5033695;28;20028;-79
2023/04/13 08:34:23;;;;;;;15.55;3.95;;;14.60;99.90;;;14.09;65.57;99961.84;4965794;28;20038;-80
2023/04/13 08:36:49;;;;;;;9.82;3.33;;;14.90;99.90;;;14.26;64.87;99965.88;5011535;28;20103;-80
2023/04/13 08:39:15;;;;;;;11.68;3.78;;;15.00;99.90;;;14.29;63.97;99969.13;5016907;28;20031;-80
2023/04/13 08:41:46;;;;;;;12.13;3.50;;;15.00;99.90;;;14.16;63.36;99963.91;5019322;28;20024;-80
2023/04/13 08:44:20;;;;;;;9.77;3.25;;;15.10;99.90;;;14.30;63.61;99965.53;5007128;28;20488;-79
2023/04/13 08:46:47;;;;;;;7.03;2.55;;;15.10;99.90;;;14.20;63.43;99969.81;4988852;28;20501;-80
2023/04/13 08:49:13;;;;;;;13.57;2.65;;;15.10;99.90;;;14.20;62.07;99974.28;5011811;28;20484;-79
2023/04/13 08:51:47;;;;;;;6.88;2.67;;;15.00;99.90;;;14.42;62.58;99977.00;5047106;28;20184;-80
2023/04/13 08:54:15;;;;;;;10.88;2.88;;;15.20;99.90;;;14.85;62.24;99984.41;5023531;28;20024;-79
2023/04/13 08:56:43;;;;;;;12.82;2.85;;;15.50;99.90;;;15.27;61.47;99992.69;5028751;28;20041;-79
2023/04/13 08:59:14;;;;;;;7.00;2.38;;;15.90;99.90;;;15.57;60.73;99993.88;5024385;28;20032;-80
2023/04/13 09:01:41;;;;;;;12.85;2.63;;;16.10;99.90;;;15.75;58.65;99994.28;5002353;28;20041;-80
2023/04/13 09:04:10;;;;;;;11.52;2.83;;;16.30;99.90;;;15.58;58.61;99980.50;5016511;28;20033;-80
2023/04/13 09:06:44;;;;;;;9.60;2.72;;;16.20;99.90;;;15.53;60.08;99993.28;5002872;28;20032;-80
2023/04/13 09:09:15;;;;;;;6.97;2.17;;;16.30;99.90;;;15.50;60.32;99984.72;5000661;28;20126;-80
2023/04/13 09:11:47;;;;;;;5.50;2.10;;;16.20;99.90;;;15.25;60.11;99993.75;4993607;28;20638;-79
2023/04/13 09:14:13;;;;;;;6.10;1.80;;;16.00;99.90;;;15.02;59.37;100000.84;5020984;28;20036;-77
2023/04/13 09:16:41;;;;;;;8.65;1.90;;;15.90;99.90;;;14.92;59.27;100006.00;5027924;28;20548;-77
2023/04/13 09:19:11;;;;;;;11.20;2.03;;;15.80;99.90;;;14.87;59.90;100011.66;5007069;28;20040;-77
2023/04/13 09:21:49;;;;;;;11.68;2.25;;;15.70;99.90;;;14.77;60.49;100019.47;5004524;28;20040;-77
2023/04/13 09:24:21;;;;;;;7.28;2.20;;;15.80;99.90;;;15.01;59.97;100013.25;5038746;28;20644;-78
2023/04/13 09:26:49;;;;;;;10.07;2.28;;;15.80;99.90;;;15.22;59.40;100026.66;5023144;28;20548;-78
2023/04/13 09:29:22;;;;;;;9.27;2.70;;;16.00;99.90;;;15.33;58.81;100031.13;5007158;28;20033;-78
2023/04/13 09:31:48;;;;;;;7.88;2.60;;;16.10;99.90;;;15.58;59.03;100038.88;5009731;28;20063;-77
2023/04/13 09:34:27;;;;;;;6.63;2.30;;;16.10;99.90;;;15.51;59.00;100029.72;5007455;28;20116;-78
2023/04/13 09:36:56;;;;;;;8.00;2.45;;;16.30;99.90;;;15.17;59.32;100034.13;5022672;28;20036;-78
2023/04/13 09:39:28;;;;;;;7.68;2.50;;;16.20;99.90;;;15.32;58.86;100035.59;5030079;28;20033;-78
2023/04/13 09:41:55;;;;;;;6.70;2.03;;;16.20;99.90;;;15.37;58.73;100035.22;5016515;28;20440;-78
2023/04/13 09:44:26;;;;;;;6.82;1.88;;;16.40;99.90;;;15.70;58.16;100047.69;4974262;28;20036;-77
2023/04/13 09:47:03;;;;;;;8.65;2.10;;;16.50;99.90;;;15.84;58.57;100059.88;5019503;28;20021;-78
2023/04/13 09:49:42;;;;;;;7.18;2.05;;;16.50;99.90;;;15.70;57.34;100054.78;5046398;28;20052;-78
2023/04/13 09:52:23;;;;;;;10.40;2.17;;;16.40;99.90;;;15.31;57.56;100055.16;5012564;28;20041;-78
2023/04/13 09:55:03;;;;;;;9.52;2.60;;;16.20;99.90;;;15.06;58.92;100055.31;5003213;28;20021;-78
2023/04/13 09:57:31;;;;;;;10.68;2.30;;;16.00;99.90;;;14.82;58.59;100052.72;5004810;28;20049;-78
2023/04/13 10:00:06;;;;;;;7.72;2.55;;;15.90;99.90;;;14.54;58.66;100041.50;5012291;28;20036;-78
2023/04/13 10:02:32;;;;;;;4.47;1.50;;;15.70;99.90;;;14.45;58.57;100042.16;4998328;28;20032;-78
2023/04/13 10:05:05;;;;;;;11.43;2.30;;;15.60;99.90;;;14.27;58.59;100054.94;4990227;28;20037;-78
2023/04/13 10:07:36;;;;;;;6.40;2.20;;;15.50;99.90;;;14.54;58.62;100065.34;5000362;28;20045;-78
2023/04/13 10:10:12;;;;;;;6.80;2.25;;;15.60;99.90;;;14.68;59.28;100070.47;5029929;28;20028;-78
2023/04/13 10:12:50;;;;;;;12.10;2.60;;;15.60;99.90;;;14.68;58.93;100070.47;5013849;28;20036;-78
2023/04/13 10:15:49;;;;;;;6.32;2.38;;;15.60;99.90;;;14.78;58.71;100075.94;5024317;28;20033;-78
2023/04/13 10:18:42;;;;;;;8.18;2.53;;;15.60;99.90;;;14.60;58.94;100080.81;5035929;28;20033;-78
2023/04/13 10:21:18;;;;;;;10.48;2.50;;;15.50;99.90;;;14.38;59.10;100080.66;5032809;28;20033;-78
2023/04/13 10:23:46;;;;;;;8.13;2.80;;;15.40;99.90;;;14.17;59.51;100081.25;5000869;28;20041;-78